Time;durP1;ratioP1;P1;durP2;ratioP2;P2;SDS_P1;SDS_P2;PMS_P1;PMS_P2;Temp;Humidity;BMP_temperature;BMP_pressure;BME280_temperature;BME280_humidity;BME280_pressure;Samples;Min_cycle;Max_cycle;Signal;HPM_P1;HPM_P2
2023/02/11 00:00:39;;;;;;;43.97;24.67;;;;;;;-8.14;100.00;94684.25;5111997;27;20059;-68
2023/02/11 00:03:06;;;;;;;43.85;23.55;;;;;;;-8.11;100.00;94681.63;5085182;28;20044;-68
2023/02/11 00:05:33;;;;;;;45.55;24.02;;;;;;;-8.03;100.00;94681.34;5111641;28;20128;-68
2023/02/11 00:08:00;;;;;;;40.70;22.52;;;;;;;-8.08;100.00;94683.19;5111668;28;20492;-68
2023/02/11 00:10:26;;;;;;;39.92;22.95;;;;;;;-8.14;100.00;94683.44;5111561;28;20495;-68
2023/02/11 00:12:54;;;;;;;49.42;25.45;;;;;;;-8.14;100.00;94680.94;5112095;28;20085;-68
2023/02/11 00:15:21;;;;;;;39.35;21.65;;;;;;;-8.14;100.00;94681.78;5111466;28;20089;-68
2023/02/11 00:17:48;;;;;;;40.45;22.55;;;;;;;-8.17;100.00;94679.38;5111738;28;20093;-68
2023/02/11 00:20:15;;;;;;;41.15;22.63;;;;;;;-8.20;100.00;94684.50;5111091;28;20556;-68
2023/02/11 00:22:42;;;;;;;38.30;21.95;;;;;;;-8.23;100.00;94687.09;5111827;28;20445;-68
2023/02/11 00:25:09;;;;;;;43.28;25.00;;;;;;;-8.22;100.00;94684.56;5111392;28;20044;-68
2023/02/11 00:27:36;;;;;;;45.40;26.50;;;;;;;-8.59;100.00;94631.97;5111569;28;20089;-68
2023/02/11 00:30:06;;;;;;;44.88;24.40;;;;;;;-8.35;100.00;94689.19;5111198;28;20898;-68
2023/02/11 00:32:33;;;;;;;40.38;23.20;;;;;;;-8.35;100.00;94693.34;5111700;28;20108;-68
2023/02/11 00:34:59;;;;;;;39.45;24.02;;;;;;;-8.32;100.00;94691.56;5110897;28;20081;-68
2023/02/11 00:37:26;;;;;;;49.50;27.55;;;;;;;-8.33;100.00;94689.16;5111492;28;20043;-68
2023/02/11 00:39:53;;;;;;;41.95;24.35;;;;;;;-8.33;100.00;94689.94;5110865;28;20096;-68
2023/02/11 00:42:19;;;;;;;41.28;23.33;;;;;;;-8.39;100.00;94690.16;5111050;28;20040;-68
2023/02/11 00:44:46;;;;;;;50.15;26.67;;;;;;;-8.43;100.00;94695.34;5110401;28;20499;-68
2023/02/11 00:47:14;;;;;;;49.10;28.48;;;;;;;-8.50;100.00;94683.13;5111102;28;20043;-68
2023/02/11 00:49:41;;;;;;;51.25;27.92;;;;;;;-8.82;100.00;94636.97;5110979;28;20472;-67
2023/02/11 00:52:07;;;;;;;75.97;37.33;;;;;;;-8.61;100.00;94682.72;5111091;28;20089;-68
2023/02/11 00:54:34;;;;;;;63.25;33.42;;;;;;;-8.57;100.00;94670.97;5110201;28;20092;-68
2023/02/11 00:57:01;;;;;;;66.78;33.45;;;;;;;-8.49;100.00;94671.44;5110676;28;20051;-68
2023/02/11 00:59:28;;;;;;;46.42;26.75;;;;;;;-8.53;100.00;94670.00;5110919;28;20056;-68
2023/02/11 01:01:55;;;;;;;48.42;26.50;;;;;;;-8.54;100.00;94668.34;5111073;28;20055;-68
2023/02/11 01:04:23;;;;;;;44.42;24.88;;;;;;;-8.59;100.00;94679.31;5110799;28;20044;-68
2023/02/11 01:06:50;;;;;;;42.72;24.67;;;;;;;-8.60;100.00;94679.38;5110723;28;20052;-68
2023/02/11 01:09:18;;;;;;;40.97;22.35;;;;;;;-8.65;100.00;94678.72;5110396;28;20092;-68
2023/02/11 01:11:45;;;;;;;45.33;24.40;;;;;;;-8.95;100.00;94642.41;5110508;28;20044;-67
2023/02/11 01:14:11;;;;;;;40.63;23.00;;;;;;;-8.80;100.00;94665.94;5110192;28;20040;-68
2023/02/11 01:16:39;;;;;;;52.25;28.23;;;;;;;-8.76;100.00;94666.63;5110601;28;20032;-68
2023/02/11 01:19:06;;;;;;;64.95;34.60;;;;;;;-8.78;100.00;94670.88;5109991;28;20089;-68
2023/02/11 01:21:34;;;;;;;55.25;27.33;;;;;;;-8.75;100.00;94673.28;5110430;28;20048;-68
2023/02/11 01:24:00;;;;;;;39.33;23.00;;;;;;;-8.86;100.00;94653.72;5110630;28;20140;-68
2023/02/11 01:26:27;;;;;;;36.92;20.60;;;;;;;-8.82;100.00;94660.22;5098610;28;20105;-68
2023/02/11 01:28:54;;;;;;;38.38;21.75;;;;;;;-8.86;100.00;94664.50;5095233;28;20404;-68
2023/02/11 01:31:20;;;;;;;43.40;23.73;;;;;;;-8.90;100.00;94664.66;5110464;28;20052;-68
2023/02/11 01:33:48;;;;;;;44.75;25.35;;;;;;;-8.93;100.00;94659.81;5110152;28;20043;-68
2023/02/11 01:36:14;;;;;;;49.50;24.17;;;;;;;-9.00;100.00;94666.66;5110050;28;20499;-68
2023/02/11 01:38:43;;;;;;;43.75;25.02;;;;;;;-9.01;100.00;94665.06;5109932;28;20088;-68
2023/02/11 01:41:13;;;;;;;44.45;23.63;;;;;;;-8.95;100.00;94657.34;5110554;28;20109;-68
2023/02/11 01:43:42;;;;;;;46.10;25.35;;;;;;;-8.90;100.00;94658.00;5109436;28;20051;-68
2023/02/11 01:46:30;;;;;;;44.78;23.60;;;;;;;-8.91;100.00;94660.53;5109552;27;20123;-68
2023/02/11 01:49:01;;;;;;;55.45;30.80;;;;;;;-8.96;100.00;94652.44;5109879;28;20050;-68
2023/02/11 01:51:32;;;;;;;52.88;30.95;;;;;;;-9.01;100.00;94650.13;5109436;28;20092;-68
2023/02/11 01:59:43;;;;;;;48.53;27.05;;;;;;;-9.09;100.00;94654.56;5109673;28;20059;-68
2023/02/11 02:02:13;;;;;;;45.10;25.50;;;;;;;-9.08;100.00;94652.00;5109972;28;20047;-68
2023/02/11 02:04:45;;;;;;;42.47;24.48;;;;;;;-9.05;100.00;94646.09;5108821;28;20051;-68
2023/02/11 02:07:17;;;;;;;51.20;27.58;;;;;;;-9.09;100.00;94654.56;5109334;28;20043;-68
2023/02/11 02:09:55;;;;;;;48.38;28.40;;;;;;;-9.09;100.00;94652.88;5109423;28;20108;-68
2023/02/11 02:12:22;;;;;;;56.75;31.75;;;;;;;-9.10;100.00;94642.97;5109323;28;20052;-68
2023/02/11 02:14:48;;;;;;;59.97;32.55;;;;;;;-9.16;100.00;94652.28;5109294;28;20043;-68
2023/02/11 02:17:29;;;;;;;64.57;33.80;;;;;;;-9.21;100.00;94649.16;5109385;28;20107;-68
2023/02/11 02:20:24;;;;;;;64.90;37.22;;;;;;;-9.33;100.00;94639.63;5109596;28;20500;-68
2023/02/11 02:23:12;;;;;;;62.70;38.03;;;;;;;-9.32;100.00;94656.97;5109982;28;20152;-68
2023/02/11 02:26:12;;;;;;;71.70;41.95;;;;;;;-9.43;100.00;94652.41;5109578;28;20043;-68
2023/02/11 02:29:10;;;;;;;89.03;47.22;;;;;;;-9.50;100.00;94648.47;5109176;28;20044;-68
2023/02/11 02:31:52;;;;;;;72.78;44.72;;;;;;;-9.51;100.00;94656.00;5108966;28;20048;-68
2023/02/11 02:34:30;;;;;;;77.32;45.92;;;;;;;-9.56;100.00;94638.72;5109446;28;20088;-68
2023/02/11 02:37:04;;;;;;;83.28;46.72;;;;;;;-9.42;100.00;94655.69;5109132;28;20046;-68
2023/02/11 02:39:35;;;;;;;46.15;26.58;;;;;;;-9.42;100.00;94655.69;5109247;28;20499;-68
2023/02/11 02:42:02;;;;;;;42.10;24.63;;;;;;;-9.48;100.00;94653.41;5109322;28;20039;-68
2023/02/11 02:44:29;;;;;;;43.00;25.35;;;;;;;-9.51;100.00;94656.81;5109282;28;20081;-68
2023/02/11 02:46:56;;;;;;;46.35;27.55;;;;;;;-9.49;100.00;94651.78;5108943;28;20085;-68
2023/02/11 02:49:24;;;;;;;48.83;25.92;;;;;;;-9.54;100.00;94655.22;5109110;28;20445;-68
2023/02/11 02:52:20;;;;;;;43.85;24.92;;;;;;;-9.56;100.00;94653.66;5109393;28;20036;-68
2023/02/11 02:55:17;;;;;;;43.90;24.73;;;;;;;-9.60;100.00;94652.94;5095529;28;20047;-68
2023/02/11 02:58:11;;;;;;;46.15;25.73;;;;;;;-9.51;100.00;94649.34;5108790;28;20091;-68
2023/02/11 03:00:45;;;;;;;48.33;24.35;;;;;;;-9.53;100.00;94646.09;5109319;28;20407;-68
2023/02/11 03:03:28;;;;;;;47.33;24.33;;;;;;;-9.48;100.00;94641.78;5108857;28;20044;-68
2023/02/11 03:06:01;;;;;;;53.33;29.88;;;;;;;-9.46;100.00;94649.16;5108868;28;20051;-68
2023/02/11 03:08:33;;;;;;;52.65;27.10;;;;;;;-9.45;100.00;94644.16;5108896;28;20334;-68
2023/02/11 03:11:01;;;;;;;51.53;28.90;;;;;;;-9.57;100.00;94630.47;5108755;28;20386;-68
2023/02/11 03:13:32;;;;;;;47.72;26.17;;;;;;;-9.66;100.00;94633.25;5108875;28;20104;-67
2023/02/11 03:16:07;;;;;;;53.03;27.55;;;;;;;-9.60;100.00;94650.47;5110580;28;20040;-67
2023/02/11 03:18:36;;;;;;;43.60;24.20;;;;;;;-9.66;100.00;94636.56;5113073;28;20104;-67
2023/02/11 03:21:07;;;;;;;43.30;24.02;;;;;;;-9.55;100.00;94651.13;5112981;28;20478;-68
2023/02/11 03:23:39;;;;;;;43.90;22.77;;;;;;;-9.51;100.00;94651.03;5112508;28;20044;-68
2023/02/11 03:26:13;;;;;;;39.33;21.70;;;;;;;-9.56;100.00;94659.47;5112502;28;20160;-68
2023/02/11 03:28:44;;;;;;;36.17;20.13;;;;;;;-9.68;100.00;94660.66;5112785;28;20047;-68
2023/02/11 03:31:14;;;;;;;46.88;25.15;;;;;;;-9.73;100.00;94657.53;5112522;28;20047;-68
2023/02/11 03:33:51;;;;;;;40.70;21.65;;;;;;;-9.73;100.00;94655.03;5112008;28;20077;-68
2023/02/11 03:36:26;;;;;;;43.97;22.83;;;;;;;-9.77;100.00;94660.97;5112208;28;20043;-68
2023/02/11 03:38:57;;;;;;;42.95;24.20;;;;;;;-9.77;100.00;94650.22;5112385;28;20183;-68
2023/02/11 03:41:25;;;;;;;44.97;24.17;;;;;;;-9.91;100.00;94651.47;5111506;28;20599;-68
2023/02/11 03:43:54;;;;;;;41.50;22.15;;;;;;;-9.94;100.00;94649.09;5112048;28;20043;-68
2023/02/11 03:46:25;;;;;;;42.33;22.08;;;;;;;-10.00;100.00;94637.66;5112531;28;20089;-68
2023/02/11 03:48:56;;;;;;;59.17;27.85;;;;;;;-10.04;100.00;94643.63;5112085;28;20044;-68
2023/02/11 03:51:26;;;;;;;48.58;25.27;;;;;;;-10.06;100.00;94638.69;5112498;28;20155;-68
2023/02/11 03:53:57;;;;;;;58.83;27.45;;;;;;;-10.01;100.00;94646.00;5111749;28;20588;-68
2023/02/11 03:56:29;;;;;;;52.30;27.73;;;;;;;-10.20;100.00;94620.91;5112087;28;20376;-68
2023/02/11 03:58:55;;;;;;;57.55;27.02;;;;;;;-10.00;100.00;94642.63;5111908;28;20454;-68
2023/02/11 04:01:22;;;;;;;50.65;26.33;;;;;;;-9.99;100.00;94644.28;5105251;28;20104;-68
2023/02/11 04:03:49;;;;;;;57.78;26.10;;;;;;;-10.06;100.00;94637.88;5110345;28;20605;-68
2023/02/11 04:06:16;;;;;;;51.47;28.00;;;;;;;-10.13;100.00;94639.75;5111513;28;20498;-68
2023/02/11 04:08:44;;;;;;;56.00;27.85;;;;;;;-10.14;100.00;94630.66;5112039;28;20075;-68
2023/02/11 04:11:11;;;;;;;74.15;30.92;;;;;;;-10.14;100.00;94634.84;5110985;28;20059;-68
2023/02/11 04:13:37;;;;;;;55.22;26.23;;;;;;;-10.18;100.00;94639.09;5111739;28;20043;-68
2023/02/11 04:16:04;;;;;;;54.55;26.80;;;;;;;-10.17;100.00;94640.72;5111225;28;20055;-68
2023/02/11 04:18:31;;;;;;;51.65;25.70;;;;;;;-10.12;100.00;94635.59;5111607;28;20101;-68
2023/02/11 04:20:58;;;;;;;52.53;27.58;;;;;;;-10.13;100.00;94632.31;5111393;28;20078;-68
2023/02/11 04:23:24;;;;;;;54.50;28.75;;;;;;;-10.31;100.00;94631.22;5111244;28;20044;-68
2023/02/11 04:25:52;;;;;;;54.97;26.73;;;;;;;-10.28;100.00;94633.56;5108912;28;20047;-68
2023/02/11 04:28:19;;;;;;;48.65;25.15;;;;;;;-10.26;100.00;94631.06;5099755;28;20096;-68
2023/02/11 04:30:46;;;;;;;55.90;30.88;;;;;;;-10.39;100.00;94616.53;5111026;28;20039;-68
2023/02/11 04:33:12;;;;;;;53.78;27.67;;;;;;;-10.34;100.00;94627.16;5111427;28;20040;-68
2023/02/11 04:35:39;;;;;;;53.63;27.38;;;;;;;-10.28;100.00;94618.66;5111319;28;20040;-68
2023/02/11 04:38:06;;;;;;;53.22;27.27;;;;;;;-10.30;100.00;94625.38;5111028;28;20117;-68
2023/02/11 04:40:32;;;;;;;50.95;27.35;;;;;;;-10.28;100.00;94621.16;5111282;28;20048;-68
2023/02/11 04:43:00;;;;;;;62.40;30.00;;;;;;;-10.34;100.00;94618.88;5111365;28;20112;-68
2023/02/11 04:45:27;;;;;;;62.42;32.75;;;;;;;-10.28;100.00;94615.38;5110810;28;20098;-68
2023/02/11 04:47:54;;;;;;;59.72;30.98;;;;;;;-10.28;100.00;94613.69;5098057;28;20388;-68
2023/02/11 04:50:20;;;;;;;58.53;29.98;;;;;;;-10.35;100.00;94623.03;5111044;28;20043;-68
2023/02/11 04:52:47;;;;;;;61.70;32.72;;;;;;;-10.37;100.00;94611.53;5097286;28;20093;-68
2023/02/11 04:55:14;;;;;;;70.00;35.95;;;;;;;-10.24;100.00;94625.16;5110322;28;20065;-68
2023/02/11 04:57:41;;;;;;;68.07;34.78;;;;;;;-10.14;100.00;94622.41;5105327;28;20082;-68
2023/02/11 05:00:10;;;;;;;67.68;36.80;;;;;;;-10.12;100.00;94620.66;5097436;28;20489;-68
2023/02/11 05:02:37;;;;;;;66.10;37.25;;;;;;;-10.10;100.00;94621.44;5105130;28;20051;-68
2023/02/11 05:05:04;;;;;;;94.82;50.55;;;;;;;-10.05;100.00;94619.59;5109922;28;20047;-68
2023/02/11 05:07:31;;;;;;;71.60;38.42;;;;;;;-10.21;100.00;94587.00;5110580;28;20469;-68
2023/02/11 05:10:00;;;;;;;74.63;39.50;;;;;;;-10.08;100.00;94617.22;5109639;28;20465;-68
2023/02/11 05:12:27;;;;;;;72.10;42.30;;;;;;;-10.03;100.00;94615.41;5110177;28;20438;-68
2023/02/11 05:14:54;;;;;;;56.63;31.60;;;;;;;-10.09;100.00;94613.13;5109718;28;20043;-68
2023/02/11 05:17:22;;;;;;;67.18;35.30;;;;;;;-10.13;100.00;94612.41;5109869;28;20522;-68
2023/02/11 05:19:48;;;;;;;53.70;30.60;;;;;;;-10.12;100.00;94613.22;5109983;28;20075;-68
2023/02/11 05:22:15;;;;;;;52.13;29.88;;;;;;;-10.09;100.00;94605.69;5098513;28;20040;-68
2023/02/11 05:24:42;;;;;;;53.05;26.27;;;;;;;-10.16;100.00;94601.75;5102475;28;20040;-69
2023/02/11 05:27:09;;;;;;;49.92;27.35;;;;;;;-10.23;100.00;94606.91;5092104;28;20040;-68
2023/02/11 05:29:36;;;;;;;45.45;23.55;;;;;;;-10.32;100.00;94599.78;5101136;28;20097;-68
2023/02/11 05:32:02;;;;;;;44.28;24.73;;;;;;;-10.37;100.00;94606.56;5097060;28;20089;-68
2023/02/11 05:34:30;;;;;;;134.93;59.40;;;;;;;-10.34;100.00;94601.47;5089978;28;20052;-68
2023/02/11 05:36:57;;;;;;;83.85;37.75;;;;;;;-10.33;100.00;94603.91;5106462;28;20392;-68
2023/02/11 05:39:24;;;;;;;72.00;36.90;;;;;;;-10.38;100.00;94614.88;5106018;28;20091;-68
2023/02/11 05:41:50;;;;;;;70.40;35.88;;;;;;;-10.39;100.00;94608.25;5093099;28;20089;-68
2023/02/11 05:44:17;;;;;;;85.18;38.72;;;;;;;-10.45;100.00;94614.28;5110132;28;20043;-68
2023/02/11 05:46:44;;;;;;;84.45;37.35;;;;;;;-10.45;100.00;94619.25;5109742;28;20643;-68
2023/02/11 05:49:10;;;;;;;77.80;37.47;;;;;;;-10.48;100.00;94611.88;5110077;28;20048;-68
2023/02/11 05:51:39;;;;;;;75.95;36.75;;;;;;;-10.39;100.00;94613.22;5109287;28;20051;-68
2023/02/11 05:54:05;;;;;;;69.97;36.28;;;;;;;-10.43;100.00;94615.03;5109528;28;20047;-68
2023/02/11 05:56:32;;;;;;;69.88;35.00;;;;;;;-10.70;100.00;94577.75;5105984;28;20093;-68
2023/02/11 05:58:59;;;;;;;61.03;32.60;;;;;;;-10.83;100.00;94561.63;5097552;28;20047;-68
2023/02/11 06:01:26;;;;;;;60.97;34.50;;;;;;;-10.54;100.00;94615.38;5109507;28;20051;-68
2023/02/11 06:03:53;;;;;;;53.47;29.17;;;;;;;-10.50;100.00;94618.56;5110064;28;20043;-68
2023/02/11 06:06:20;;;;;;;58.60;33.13;;;;;;;-10.47;100.00;94624.25;5109129;28;20048;-68
2023/02/11 06:08:48;;;;;;;80.22;37.10;;;;;;;-10.49;100.00;94623.50;5104500;28;20040;-68
2023/02/11 06:11:16;;;;;;;80.85;38.45;;;;;;;-10.41;100.00;94619.94;5109346;28;20043;-68
2023/02/11 06:13:43;;;;;;;94.95;48.03;;;;;;;-10.35;100.00;94623.03;5109077;28;20052;-68
2023/02/11 06:16:09;;;;;;;93.70;51.58;;;;;;;-10.26;100.00;94614.47;5109239;28;20108;-68
2023/02/11 06:18:36;;;;;;;82.30;39.67;;;;;;;-10.26;100.00;94607.03;5109494;28;20103;-68
2023/02/11 06:21:07;;;;;;;77.43;35.97;;;;;;;-10.11;100.00;94619.81;5104241;28;20081;-68
2023/02/11 06:23:33;;;;;;;72.90;33.90;;;;;;;-10.07;100.00;94619.69;5101673;28;20492;-68
2023/02/11 06:26:04;;;;;;;72.00;30.83;;;;;;;-9.94;100.00;94620.09;5094092;28;20105;-68
2023/02/11 06:28:31;;;;;;;55.83;27.58;;;;;;;-9.87;100.00;94608.25;5102388;28;20105;-67
2023/02/11 06:30:58;;;;;;;45.03;24.73;;;;;;;-9.81;100.00;94609.72;5103328;28;20117;-68
2023/02/11 06:33:25;;;;;;;48.05;24.08;;;;;;;-9.73;100.00;94614.44;5091022;28;20089;-68
2023/02/11 06:35:52;;;;;;;44.50;24.10;;;;;;;-9.60;100.00;94619.78;5100264;28;20438;-67
2023/02/11 06:38:18;;;;;;;45.25;22.83;;;;;;;-9.71;100.00;94590.31;5105405;28;20093;-67
2023/02/11 06:40:48;;;;;;;51.63;29.70;;;;;;;-9.42;100.00;94620.84;5109560;28;20101;-67
2023/02/11 06:43:16;;;;;;;49.85;27.77;;;;;;;-9.27;100.00;94619.50;5109266;28;20040;-67
2023/02/11 06:45:43;;;;;;;46.25;27.95;;;;;;;-9.09;100.00;94627.19;5109272;28;20047;-67
2023/02/11 06:48:10;;;;;;;112.93;62.28;;;;;;;-8.95;100.00;94615.03;5108775;28;20081;-67
2023/02/11 06:50:36;;;;;;;100.85;54.30;;;;;;;-8.79;100.00;94629.41;5110639;28;20187;-68
2023/02/11 06:53:03;;;;;;;150.73;81.00;;;;;;;-8.66;100.00;94622.28;5112717;28;20652;-68
2023/02/11 06:55:30;;;;;;;131.50;69.55;;;;;;;-8.50;100.00;94622.47;5113089;28;20039;-68
2023/02/11 06:57:57;;;;;;;113.57;61.80;;;;;;;-8.31;100.00;94632.56;5113336;28;20124;-68
2023/02/11 07:00:25;;;;;;;106.25;53.08;;;;;;;-8.14;100.00;94623.59;5112981;28;20056;-67
2023/02/11 07:02:52;;;;;;;100.50;55.53;;;;;;;-7.98;100.00;94629.59;5113032;28;20088;-68
2023/02/11 07:05:18;;;;;;;94.10;56.33;;;;;;;-7.81;100.00;94628.09;5112759;28;20101;-68
2023/02/11 07:07:45;;;;;;;97.65;57.22;;;;;;;-7.61;100.00;94626.44;5109982;28;20048;-68
2023/02/11 07:10:12;;;;;;;110.40;65.18;;;;;;;-7.47;100.00;94619.22;5109705;28;20096;-69
2023/02/11 07:12:39;;;;;;;118.43;67.22;;;;;;;-7.29;100.00;94622.63;5111120;28;20036;-69
2023/02/11 07:15:06;;;;;;;132.20;76.32;;;;;;;-7.08;100.00;94624.25;5113052;28;20472;-69
2023/02/11 07:17:35;;;;;;;131.98;75.90;;;;;;;-6.93;100.00;94616.09;5112994;28;20043;-69
2023/02/11 07:20:02;;;;;;;125.72;72.30;;;;;;;-6.69;100.00;94620.84;5112819;28;20553;-69
2023/02/11 07:22:29;;;;;;;104.22;59.65;;;;;;;-6.46;100.00;94611.47;5112001;28;20089;-69
2023/02/11 07:24:56;;;;;;;99.70;52.63;;;;;;;-6.29;100.00;94612.38;5113098;28;20083;-69
2023/02/11 07:27:22;;;;;;;110.30;56.00;;;;;;;-6.09;100.00;94613.94;5104924;28;20085;-69
2023/02/11 07:29:49;;;;;;;86.30;43.78;;;;;;;-5.93;100.00;94609.78;5112069;28;20108;-69
2023/02/11 07:32:16;;;;;;;51.83;27.52;;;;;;;-5.78;100.00;94608.22;5111191;28;20545;-70
2023/02/11 07:34:44;;;;;;;51.60;27.17;;;;;;;-5.77;100.00;94571.50;5112068;28;20096;-70
2023/02/11 07:37:11;;;;;;;60.55;32.97;;;;;;;-5.50;100.00;94588.53;5104883;28;20523;-70
2023/02/11 07:39:37;;;;;;;65.70;36.42;;;;;;;-5.19;100.00;94594.47;5102927;28;20075;-69
2023/02/11 07:42:04;;;;;;;86.88;43.30;;;;;;;-5.30;100.00;94554.13;5112367;28;20390;-69
2023/02/11 07:44:32;;;;;;;92.57;47.03;;;;;;;-4.89;100.00;94592.97;5112381;28;20097;-69
2023/02/11 07:46:58;;;;;;;98.80;56.83;;;;;;;-4.73;100.00;94588.75;5111776;27;20040;-67
2023/02/11 07:49:25;;;;;;;100.93;49.65;;;;;;;-4.58;100.00;94588.81;5112027;28;20104;-67
2023/02/11 07:51:53;;;;;;;105.82;51.33;;;;;;;-4.49;100.00;94585.00;5098535;28;20065;-67
2023/02/11 07:54:20;;;;;;;123.28;61.83;;;;;;;-4.45;98.68;94576.41;5112269;28;20044;-67
2023/02/11 07:56:47;;;;;;;148.02;73.13;;;;;;;-4.49;95.83;94582.50;5111814;28;20048;-67
2023/02/11 07:59:14;;;;;;;141.50;68.50;;;;;;;-4.37;98.00;94573.47;5111812;28;20047;-67
2023/02/11 08:01:40;;;;;;;131.73;65.60;;;;;;;-4.21;100.00;94573.47;5110817;28;20488;-67
2023/02/11 08:04:07;;;;;;;125.88;65.43;;;;;;;-4.00;100.00;94580.66;5111630;28;20047;-67
2023/02/11 08:06:35;;;;;;;78.10;41.80;;;;;;;-4.01;97.17;94582.38;5106475;28;20097;-67
2023/02/11 08:09:07;;;;;;;74.78;40.20;;;;;;;-3.93;96.67;94574.41;5104075;28;20447;-67
2023/02/11 08:11:34;;;;;;;88.93;48.88;;;;;;;-3.90;94.81;94575.03;5111852;28;20408;-67
2023/02/11 08:14:01;;;;;;;84.97;47.95;;;;;;;-3.92;95.17;94578.53;5111771;28;20047;-67
2023/02/11 08:16:30;;;;;;;78.53;42.17;;;;;;;-3.92;94.24;94581.88;5111599;28;20052;-67
2023/02/11 08:18:59;;;;;;;80.35;42.17;;;;;;;-3.78;94.49;94573.53;5111857;28;20117;-67
2023/02/11 08:21:26;;;;;;;83.25;44.25;;;;;;;-3.62;95.94;94567.63;5111646;28;20123;-67
2023/02/11 08:23:53;;;;;;;72.57;38.35;;;;;;;-3.57;93.85;94554.81;5111028;28;20089;-69
2023/02/11 08:26:23;;;;;;;68.97;36.05;;;;;;;-3.42;92.47;94571.47;5109069;28;20044;-70
2023/02/11 08:28:52;;;;;;;57.70;33.47;;;;;;;-3.49;91.80;94553.47;5106498;28;20104;-69
2023/02/11 08:31:20;;;;;;;63.15;33.70;;;;;;;-3.29;92.67;94569.03;5102864;28;20505;-69
2023/02/11 08:33:48;;;;;;;57.40;31.98;;;;;;;-3.07;97.13;94572.78;5103880;28;20089;-69
2023/02/11 08:36:18;;;;;;;61.30;30.90;;;;;;;-3.06;88.90;94574.41;5100670;28;20133;-69
2023/02/11 08:38:46;;;;;;;56.03;28.65;;;;;;;-2.99;83.47;94575.66;5110644;28;20050;-69
2023/02/11 08:41:13;;;;;;;42.90;23.92;;;;;;;-2.89;82.31;94572.56;5111738;28;20056;-68
2023/02/11 08:43:43;;;;;;;35.80;18.45;;;;;;;-2.91;79.93;94567.66;5112165;28;20051;-68
2023/02/11 08:46:13;;;;;;;40.33;22.02;;;;;;;-2.85;80.87;94579.84;5100875;28;20063;-69
2023/02/11 08:48:40;;;;;;;47.70;23.58;;;;;;;-2.73;79.73;94557.38;5097280;28;20100;-68
2023/02/11 08:51:08;;;;;;;28.65;14.13;;;;;;;-2.83;71.90;94573.00;5111221;28;20130;-68
2023/02/11 08:53:35;;;;;;;28.98;17.35;;;;;;;-2.71;75.88;94573.97;5111103;28;20066;-68
2023/02/11 08:56:01;;;;;;;33.92;18.80;;;;;;;-2.54;77.22;94577.16;5110633;28;20058;-68
2023/02/11 08:58:28;;;;;;;33.08;17.40;;;;;;;-2.50;71.78;94573.53;5110767;28;20044;-69
2023/02/11 09:00:56;;;;;;;34.03;19.00;;;;;;;-2.40;75.50;94571.28;5109727;28;20127;-69
2023/02/11 09:03:23;;;;;;;37.10;23.58;;;;;;;-2.20;80.89;94569.19;5110981;28;20043;-69
2023/02/11 09:05:52;;;;;;;36.83;19.98;;;;;;;-1.94;83.25;94565.00;5110333;28;20047;-68
2023/02/11 09:08:19;;;;;;;32.58;19.42;;;;;;;-1.72;79.52;94566.13;5110662;28;20105;-68
2023/02/11 09:10:46;;;;;;;29.40;14.55;;;;;;;-1.42;81.90;94565.03;5110566;28;20453;-68
2023/02/11 09:13:12;;;;;;;29.48;14.02;;;;;;;-1.23;79.79;94554.50;5110679;28;20385;-68
2023/02/11 09:15:39;;;;;;;38.38;18.85;;;;;;;-1.03;81.93;94556.59;5110746;28;20047;-68
2023/02/11 09:18:07;;;;;;;32.25;16.73;;;;;;;-0.99;68.52;94558.78;5109943;27;20492;-68
2023/02/11 09:20:34;;;;;;;30.38;18.40;;;;;;;-0.98;73.10;94559.56;5110497;28;20097;-68
2023/02/11 09:23:01;;;;;;;38.63;21.05;;;;;;;-0.82;79.12;94550.03;5110148;28;20088;-68
2023/02/11 09:25:27;;;;;;;34.40;20.92;;;;;;;-0.63;78.86;94556.34;5110298;28;20046;-68
2023/02/11 09:27:54;;;;;;;32.33;18.15;;;;;;;-0.64;75.06;94556.44;5107256;27;20051;-68
2023/02/11 09:30:21;;;;;;;35.70;17.27;;;;;;;-0.45;75.33;94553.44;5108903;28;20036;-68
2023/02/11 09:32:47;;;;;;;29.95;17.33;;;;;;;-0.66;67.87;94541.41;5089781;28;20466;-68
2023/02/11 09:35:16;;;;;;;31.48;15.95;;;;;;;-0.52;70.91;94545.47;5107317;28;20044;-68
2023/02/11 09:37:43;;;;;;;32.30;16.35;;;;;;;-0.43;76.25;94542.31;5110527;28;20050;-68
2023/02/11 09:40:10;;;;;;;28.75;14.60;;;;;;;-0.32;74.65;94544.06;5109465;28;20060;-68
2023/02/11 09:42:47;;;;;;;27.73;15.50;;;;;;;-0.46;67.46;94541.75;5110194;28;20047;-68
2023/02/11 09:45:19;;;;;;;23.45;14.60;;;;;;;-0.66;66.05;94526.25;5109847;28;20043;-68
2023/02/11 09:47:50;;;;;;;26.83;14.00;;;;;;;-0.50;65.67;94530.25;5109869;27;20112;-68
2023/02/11 09:50:23;;;;;;;26.95;13.55;;;;;;;-0.51;69.46;94524.38;5109997;28;20124;-68
2023/02/11 09:52:56;;;;;;;23.85;9.85;;;;;;;-0.48;65.94;94519.13;5109660;28;20555;-68
2023/02/11 09:55:27;;;;;;;26.70;13.70;;;;;;;-0.36;69.42;94519.97;5110249;28;20054;-68
2023/02/11 09:57:55;;;;;;;26.63;13.88;;;;;;;-0.62;64.59;94527.66;5109728;28;20073;-68
2023/02/11 10:00:27;;;;;;;23.05;12.95;;;;;;;-0.90;64.66;94518.69;5109635;28;20095;-69
2023/02/11 10:03:21;;;;;;;24.88;12.07;;;;;;;-0.87;66.36;94514.25;5109642;28;20089;-68
2023/02/11 10:06:07;;;;;;;25.02;13.43;;;;;;;-0.59;73.42;94494.66;5109634;28;20442;-68
2023/02/11 10:08:45;;;;;;;31.38;13.50;;;;;;;-0.29;72.00;94490.03;5109562;28;20089;-68
2023/02/11 10:11:18;;;;;;;29.52;14.07;;;;;;;-0.28;68.01;94479.00;5109538;28;20100;-68
2023/02/11 10:13:56;;;;;;;23.77;11.98;;;;;;;-0.22;63.80;94490.38;5109312;28;20047;-68
2023/02/11 10:16:42;;;;;;;19.75;11.45;;;;;;;-0.27;64.56;94478.09;5109385;28;20040;-68
2023/02/11 10:19:20;;;;;;;19.63;9.43;;;;;;;-0.07;72.61;94461.50;5109224;28;20051;-68
2023/02/11 10:21:59;;;;;;;18.80;9.95;;;;;;;0.14;66.72;94468.41;5109046;28;20096;-68
2023/02/11 10:24:27;;;;;;;14.00;8.48;;;;;;;0.20;60.61;94465.41;5109042;28;20048;-69
2023/02/11 10:26:55;;;;;;;18.02;11.40;;;;;;;0.09;58.90;94448.53;5102314;28;20048;-69
2023/02/11 10:29:33;;;;;;;18.90;8.60;;;;;;;0.11;62.06;94445.88;5109167;28;20044;-69
2023/02/11 10:32:05;;;;;;;19.17;9.85;;;;;;;0.20;69.49;94440.16;5093915;28;20086;-69
2023/02/11 10:34:33;;;;;;;14.32;8.65;;;;;;;0.18;59.92;94434.38;5100856;28;20112;-68
2023/02/11 10:37:02;;;;;;;15.43;9.75;;;;;;;0.18;58.05;94429.34;5109105;28;20070;-69
2023/02/11 10:39:29;;;;;;;14.77;8.43;;;;;;;0.18;60.25;94420.97;5109170;28;20048;-68
2023/02/11 10:41:59;;;;;;;13.10;8.45;;;;;;;0.09;55.66;94399.72;5109428;28;20403;-68
2023/02/11 10:44:30;;;;;;;22.73;11.00;;;;;;;0.30;65.46;94409.13;5108733;28;20047;-68
2023/02/11 10:47:02;;;;;;;14.77;8.60;;;;;;;0.32;60.51;94400.50;5109190;28;20035;-68
2023/02/11 10:49:39;;;;;;;17.77;8.18;;;;;;;0.31;61.91;94393.84;5109204;28;20552;-68
2023/02/11 10:52:22;;;;;;;14.98;8.02;;;;;;;0.05;57.04;94365.50;5109340;28;20043;-68
2023/02/11 10:55:05;;;;;;;76.07;26.85;;;;;;;0.51;64.08;94382.19;5108740;28;20048;-69
2023/02/11 10:57:35;;;;;;;24.63;10.73;;;;;;;0.63;60.33;94387.22;5109415;28;20453;-69
2023/02/11 11:00:23;;;;;;;14.07;7.18;;;;;;;0.31;54.56;94388.78;5108434;28;20128;-69
2023/02/11 11:02:56;;;;;;;20.85;10.25;;;;;;;0.49;58.05;94380.69;5108837;28;20048;-69
2023/02/11 11:05:29;;;;;;;16.65;8.25;;;;;;;0.69;63.17;94378.38;5108893;28;20046;-69
2023/02/11 11:08:00;;;;;;;14.80;7.00;;;;;;;0.61;55.34;94359.50;5108925;28;20510;-69
2023/02/11 11:10:43;;;;;;;27.83;10.48;;;;;;;0.84;57.89;94378.88;5090979;28;20149;-69
2023/02/11 11:13:37;;;;;;;13.00;7.60;;;;;;;0.73;58.37;94374.66;5102022;28;20468;-69
2023/02/11 11:16:18;;;;;;;39.15;15.27;;;;;;;0.93;68.29;94363.00;5053600;28;20040;-69
2023/02/11 11:18:46;;;;;;;18.75;9.40;;;;;;;1.12;67.43;94359.81;5108728;28;20560;-69
2023/02/11 11:21:16;;;;;;;16.17;7.65;;;;;;;1.16;59.27;94360.34;5108537;28;20119;-69
2023/02/11 11:23:51;;;;;;;34.40;19.67;;;;;;;1.24;65.62;94349.63;5108866;28;20093;-69
2023/02/11 11:26:18;;;;;;;26.30;11.48;;;;;;;1.40;65.78;94360.09;5105545;28;20160;-69